sensor_id;sensor_type;location;lat;lon;timestamp;pressure;altitude;pressure_sealevel;temperature;humidity
7760;BME280;3924;48.830;9.262;2023-06-14T00:01:28;98029.41;;;18.70;41.17
7760;BME280;3924;48.830;9.262;2023-06-14T00:03:55;98032.75;;;18.64;41.50
7760;BME280;3924;48.830;9.262;2023-06-14T00:06:22;98042.50;;;18.61;41.09
7760;BME280;3924;48.830;9.262;2023-06-14T00:08:50;98041.25;;;18.58;41.36
7760;BME280;3924;48.830;9.262;2023-06-14T00:11:17;98048.28;;;18.56;41.62
7760;BME280;3924;48.830;9.262;2023-06-14T00:13:44;98048.09;;;18.49;41.81
7760;BME280;3924;48.830;9.262;2023-06-14T00:16:10;98043.69;;;18.44;42.07
7760;BME280;3924;48.830;9.262;2023-06-14T00:18:38;98039.97;;;18.37;41.87
7760;BME280;3924;48.830;9.262;2023-06-14T00:21:05;98034.16;;;18.22;42.22
7760;BME280;3924;48.830;9.262;2023-06-14T00:23:31;98036.00;;;18.18;42.45
7760;BME280;3924;48.830;9.262;2023-06-14T00:25:58;98037.94;;;18.18;42.58
7760;BME280;3924;48.830;9.262;2023-06-14T00:28:24;98036.53;;;18.24;42.82
7760;BME280;3924;48.830;9.262;2023-06-14T00:30:51;98037.31;;;18.24;42.54
7760;BME280;3924;48.830;9.262;2023-06-14T00:33:18;98030.25;;;18.23;42.68
7760;BME280;3924;48.830;9.262;2023-06-14T00:35:44;98025.56;;;18.24;42.90
7760;BME280;3924;48.830;9.262;2023-06-14T00:38:11;98029.38;;;18.19;42.89
7760;BME280;3924;48.830;9.262;2023-06-14T00:40:37;98032.81;;;18.16;42.90
7760;BME280;3924;48.830;9.262;2023-06-14T00:43:04;98026.00;;;18.10;43.09
7760;BME280;3924;48.830;9.262;2023-06-14T00:45:30;98023.63;;;18.09;43.04
7760;BME280;3924;48.830;9.262;2023-06-14T00:47:58;98035.41;;;18.09;43.56
7760;BME280;3924;48.830;9.262;2023-06-14T00:50:25;98034.59;;;18.09;43.37
7760;BME280;3924;48.830;9.262;2023-06-14T00:52:52;98042.84;;;18.09;43.66
7760;BME280;3924;48.830;9.262;2023-06-14T00:55:19;98038.16;;;17.93;44.01
7760;BME280;3924;48.830;9.262;2023-06-14T00:57:46;98043.09;;;17.88;44.04
7760;BME280;3924;48.830;9.262;2023-06-14T01:00:14;98044.25;;;17.87;43.97
7760;BME280;3924;48.830;9.262;2023-06-14T01:02:41;98042.66;;;17.86;44.14
7760;BME280;3924;48.830;9.262;2023-06-14T01:05:09;98041.25;;;17.92;44.23
7760;BME280;3924;48.830;9.262;2023-06-14T01:07:46;98038.50;;;17.92;44.22
7760;BME280;3924;48.830;9.262;2023-06-14T01:10:30;98045.13;;;17.91;44.16
7760;BME280;3924;48.830;9.262;2023-06-14T01:13:10;98042.75;;;17.89;44.38
7760;BME280;3924;48.830;9.262;2023-06-14T01:15:39;98039.56;;;17.87;44.42
7760;BME280;3924;48.830;9.262;2023-06-14T01:18:07;98044.16;;;17.83;44.50
7760;BME280;3924;48.830;9.262;2023-06-14T01:20:34;98038.84;;;17.74;44.65
7760;BME280;3924;48.830;9.262;2023-06-14T01:23:04;98041.94;;;17.73;44.69
7760;BME280;3924;48.830;9.262;2023-06-14T01:25:31;98042.28;;;17.71;44.74
7760;BME280;3924;48.830;9.262;2023-06-14T01:28:03;98042.28;;;17.71;45.06
7760;BME280;3924;48.830;9.262;2023-06-14T01:30:30;98043.75;;;17.69;45.02
7760;BME280;3924;48.830;9.262;2023-06-14T01:33:00;98055.44;;;17.66;45.20
7760;BME280;3924;48.830;9.262;2023-06-14T01:35:26;98047.56;;;17.64;45.35
7760;BME280;3924;48.830;9.262;2023-06-14T01:37:53;98050.56;;;17.59;45.52
7760;BME280;3924;48.830;9.262;2023-06-14T01:40:21;98041.44;;;17.55;45.57
7760;BME280;3924;48.830;9.262;2023-06-14T01:42:49;98043.28;;;17.51;45.74
7760;BME280;3924;48.830;9.262;2023-06-14T01:45:17;98046.72;;;17.48;45.79
7760;BME280;3924;48.830;9.262;2023-06-14T01:47:45;98042.31;;;17.43;46.03
7760;BME280;3924;48.830;9.262;2023-06-14T01:50:12;98043.00;;;17.40;45.82
7760;BME280;3924;48.830;9.262;2023-06-14T01:52:39;98037.44;;;17.37;46.10
7760;BME280;3924;48.830;9.262;2023-06-14T01:55:06;98045.19;;;17.35;46.36
7760;BME280;3924;48.830;9.262;2023-06-14T01:57:34;98042.25;;;17.28;46.53
7760;BME280;3924;48.830;9.262;2023-06-14T02:00:01;98047.28;;;17.26;46.56
7760;BME280;3924;48.830;9.262;2023-06-14T02:02:27;98048.88;;;17.27;46.58
7760;BME280;3924;48.830;9.262;2023-06-14T02:04:54;98049.13;;;17.21;46.68
7760;BME280;3924;48.830;9.262;2023-06-14T02:07:23;98050.19;;;17.17;46.67
7760;BME280;3924;48.830;9.262;2023-06-14T02:09:50;98046.09;;;17.11;47.00
7760;BME280;3924;48.830;9.262;2023-06-14T02:12:17;98049.97;;;17.10;47.06
7760;BME280;3924;48.830;9.262;2023-06-14T02:14:43;98041.41;;;17.11;47.08
7760;BME280;3924;48.830;9.262;2023-06-14T02:17:11;98046.88;;;17.11;47.02
7760;BME280;3924;48.830;9.262;2023-06-14T02:19:37;98038.13;;;17.06;47.10
7760;BME280;3924;48.830;9.262;2023-06-14T02:22:05;98039.63;;;17.03;47.19
7760;BME280;3924;48.830;9.262;2023-06-14T02:24:31;98040.22;;;16.97;47.51
7760;BME280;3924;48.830;9.262;2023-06-14T02:26:58;98051.03;;;16.93;47.36
7760;BME280;3924;48.830;9.262;2023-06-14T02:29:24;98048.78;;;16.95;47.13
7760;BME280;3924;48.830;9.262;2023-06-14T02:31:51;98046.13;;;16.99;47.26
7760;BME280;3924;48.830;9.262;2023-06-14T02:34:17;98038.72;;;16.99;47.49
7760;BME280;3924;48.830;9.262;2023-06-14T02:36:46;98048.78;;;16.95;47.48
7760;BME280;3924;48.830;9.262;2023-06-14T02:39:14;98046.28;;;16.90;47.75
7760;BME280;3924;48.830;9.262;2023-06-14T02:41:40;98045.81;;;16.88;48.03
7760;BME280;3924;48.830;9.262;2023-06-14T02:44:07;98042.97;;;16.84;47.86
7760;BME280;3924;48.830;9.262;2023-06-14T02:46:33;98050.75;;;16.82;48.03
7760;BME280;3924;48.830;9.262;2023-06-14T02:49:00;98054.88;;;16.76;48.12
7760;BME280;3924;48.830;9.262;2023-06-14T02:51:27;98050.41;;;16.72;48.35
7760;BME280;3924;48.830;9.262;2023-06-14T02:53:53;98052.72;;;16.70;48.31
7760;BME280;3924;48.830;9.262;2023-06-14T02:56:20;98058.03;;;16.66;48.43
7760;BME280;3924;48.830;9.262;2023-06-14T02:58:48;98056.44;;;16.65;48.64
7760;BME280;3924;48.830;9.262;2023-06-14T03:01:15;98051.31;;;16.63;48.70
7760;BME280;3924;48.830;9.262;2023-06-14T03:03:43;98055.66;;;16.64;48.68
7760;BME280;3924;48.830;9.262;2023-06-14T03:06:10;98059.31;;;16.68;48.74
7760;BME280;3924;48.830;9.262;2023-06-14T03:08:42;98061.56;;;16.66;48.56
7760;BME280;3924;48.830;9.262;2023-06-14T03:11:08;98063.41;;;16.62;48.58
7760;BME280;3924;48.830;9.262;2023-06-14T03:13:35;98068.09;;;16.62;48.93
7760;BME280;3924;48.830;9.262;2023-06-14T03:16:01;98071.16;;;16.60;49.01
7760;BME280;3924;48.830;9.262;2023-06-14T03:18:31;98071.06;;;16.57;49.09
7760;BME280;3924;48.830;9.262;2023-06-14T03:21:02;98066.38;;;16.57;49.01
7760;BME280;3924;48.830;9.262;2023-06-14T03:23:29;98070.25;;;16.56;49.06
7760;BME280;3924;48.830;9.262;2023-06-14T03:25:55;98078.03;;;16.54;49.29
7760;BME280;3924;48.830;9.262;2023-06-14T03:28:22;98081.66;;;16.46;49.47
7760;BME280;3924;48.830;9.262;2023-06-14T03:30:49;98079.63;;;16.43;49.60
7760;BME280;3924;48.830;9.262;2023-06-14T03:33:16;98077.22;;;16.41;49.80
7760;BME280;3924;48.830;9.262;2023-06-14T03:35:43;98082.34;;;16.43;49.63
7760;BME280;3924;48.830;9.262;2023-06-14T03:38:10;98078.69;;;16.39;49.77
7760;BME280;3924;48.830;9.262;2023-06-14T03:40:36;98085.28;;;16.26;49.89
7760;BME280;3924;48.830;9.262;2023-06-14T03:43:03;98082.13;;;16.24;49.91
7760;BME280;3924;48.830;9.262;2023-06-14T03:45:29;98084.97;;;16.27;50.01
7760;BME280;3924;48.830;9.262;2023-06-14T03:47:56;98089.09;;;16.33;49.73
7760;BME280;3924;48.830;9.262;2023-06-14T03:50:23;98095.34;;;16.34;49.87
7760;BME280;3924;48.830;9.262;2023-06-14T03:52:49;98102.19;;;16.28;49.93
7760;BME280;3924;48.830;9.262;2023-06-14T03:55:16;98103.66;;;16.25;49.94
7760;BME280;3924;48.830;9.262;2023-06-14T03:57:46;98103.53;;;16.22;50.18
7760;BME280;3924;48.830;9.262;2023-06-14T04:00:13;98100.38;;;16.20;50.14
7760;BME280;3924;48.830;9.262;2023-06-14T04:02:39;98104.34;;;16.22;50.07
7760;BME280;3924;48.830;9.262;2023-06-14T04:05:06;98112.75;;;16.17;50.24
7760;BME280;3924;48.830;9.262;2023-06-14T04:07:35;98108.88;;;16.18;50.30
7760;BME280;3924;48.830;9.262;2023-06-14T04:10:16;98112.66;;;16.26;50.26
7760;BME280;3924;48.830;9.262;2023-06-14T04:12:43;98110.63;;;16.35;50.31
7760;BME280;3924;48.830;9.262;2023-06-14T04:15:10;98117.00;;;16.39;50.16
7760;BME280;3924;48.830;9.262;2023-06-14T04:17:47;98115.84;;;16.40;50.21
7760;BME280;3924;48.830;9.262;2023-06-14T04:20:13;98115.84;;;16.40;50.27
7760;BME280;3924;48.830;9.262;2023-06-14T04:22:40;98119.97;;;16.46;50.48
7760;BME280;3924;48.830;9.262;2023-06-14T04:25:07;98123.03;;;16.45;50.36
7760;BME280;3924;48.830;9.262;2023-06-14T04:27:34;98121.59;;;16.47;50.37
7760;BME280;3924;48.830;9.262;2023-06-14T04:30:03;98124.88;;;16.53;50.35
7760;BME280;3924;48.830;9.262;2023-06-14T04:32:29;98127.03;;;16.59;50.41
7760;BME280;3924;48.830;9.262;2023-06-14T04:35:00;98136.16;;;16.63;50.29
7760;BME280;3924;48.830;9.262;2023-06-14T04:37:28;98128.53;;;16.69;50.22
7760;BME280;3924;48.830;9.262;2023-06-14T04:39:56;98142.81;;;16.75;50.22
7760;BME280;3924;48.830;9.262;2023-06-14T04:42:24;98145.44;;;16.83;50.47
7760;BME280;3924;48.830;9.262;2023-06-14T04:44:57;98143.94;;;16.86;50.47
7760;BME280;3924;48.830;9.262;2023-06-14T04:47:24;98152.84;;;16.95;50.23
7760;BME280;3924;48.830;9.262;2023-06-14T04:49:57;98153.50;;;17.04;50.18
7760;BME280;3924;48.830;9.262;2023-06-14T04:52:25;98158.03;;;17.12;50.06
7760;BME280;3924;48.830;9.262;2023-06-14T04:54:54;98161.66;;;17.29;49.75
7760;BME280;3924;48.830;9.262;2023-06-14T04:57:22;98164.72;;;17.39;49.57
7760;BME280;3924;48.830;9.262;2023-06-14T04:59:49;98170.75;;;17.45;49.28
7760;BME280;3924;48.830;9.262;2023-06-14T05:02:24;98160.25;;;17.47;49.46
7760;BME280;3924;48.830;9.262;2023-06-14T05:04:52;98156.44;;;17.64;48.96
7760;BME280;3924;48.830;9.262;2023-06-14T05:07:19;98153.75;;;17.80;48.77
7760;BME280;3924;48.830;9.262;2023-06-14T05:09:46;98150.78;;;17.85;48.61
7760;BME280;3924;48.830;9.262;2023-06-14T05:12:13;98156.34;;;18.04;48.26
7760;BME280;3924;48.830;9.262;2023-06-14T05:14:39;98156.28;;;18.16;48.61
7760;BME280;3924;48.830;9.262;2023-06-14T05:17:06;98155.50;;;18.31;48.06
7760;BME280;3924;48.830;9.262;2023-06-14T05:19:32;98158.28;;;18.47;47.64
7760;BME280;3924;48.830;9.262;2023-06-14T05:21:59;98163.38;;;18.65;47.36
7760;BME280;3924;48.830;9.262;2023-06-14T05:24:25;98164.06;;;18.74;47.40
7760;BME280;3924;48.830;9.262;2023-06-14T05:26:52;98164.31;;;18.53;47.47
7760;BME280;3924;48.830;9.262;2023-06-14T05:29:19;98163.84;;;18.51;47.75
7760;BME280;3924;48.830;9.262;2023-06-14T05:31:45;98164.31;;;18.53;47.47
7760;BME280;3924;48.830;9.262;2023-06-14T05:34:12;98166.59;;;18.51;47.50
7760;BME280;3924;48.830;9.262;2023-06-14T05:36:38;98170.66;;;18.57;47.58
7760;BME280;3924;48.830;9.262;2023-06-14T05:39:05;98166.28;;;18.68;47.02
7760;BME280;3924;48.830;9.262;2023-06-14T05:41:33;98169.19;;;18.75;46.83
7760;BME280;3924;48.830;9.262;2023-06-14T05:43:59;98164.66;;;18.83;46.81
7760;BME280;3924;48.830;9.262;2023-06-14T05:46:26;98169.53;;;18.90;46.44
7760;BME280;3924;48.830;9.262;2023-06-14T05:48:55;98167.78;;;19.01;46.26
7760;BME280;3924;48.830;9.262;2023-06-14T05:51:22;98178.22;;;18.76;46.61
7760;BME280;3924;48.830;9.262;2023-06-14T05:53:51;98176.78;;;18.50;47.07
7760;BME280;3924;48.830;9.262;2023-06-14T05:56:18;98175.28;;;18.53;47.36
7760;BME280;3924;48.830;9.262;2023-06-14T05:58:45;98175.91;;;18.62;46.95
7760;BME280;3924;48.830;9.262;2023-06-14T06:01:12;98170.34;;;18.74;46.73
7760;BME280;3924;48.830;9.262;2023-06-14T06:03:39;98180.06;;;18.88;46.65
7760;BME280;3924;48.830;9.262;2023-06-14T06:06:06;98176.66;;;19.10;45.96
7760;BME280;3924;48.830;9.262;2023-06-14T06:08:34;98173.66;;;19.34;45.64
7760;BME280;3924;48.830;9.262;2023-06-14T06:11:01;98172.97;;;19.57;45.24
7760;BME280;3924;48.830;9.262;2023-06-14T06:13:28;98175.59;;;19.69;44.90
7760;BME280;3924;48.830;9.262;2023-06-14T06:15:54;98175.72;;;19.95;44.56
7760;BME280;3924;48.830;9.262;2023-06-14T06:18:22;98184.56;;;20.05;44.17
7760;BME280;3924;48.830;9.262;2023-06-14T06:20:49;98182.25;;;19.87;44.41
7760;BME280;3924;48.830;9.262;2023-06-14T06:23:16;98185.69;;;20.04;44.42
7760;BME280;3924;48.830;9.262;2023-06-14T06:25:43;98177.28;;;20.16;43.87
7760;BME280;3924;48.830;9.262;2023-06-14T06:28:10;98185.78;;;20.07;43.97
7760;BME280;3924;48.830;9.262;2023-06-14T06:30:38;98185.78;;;20.07;44.27
7760;BME280;3924;48.830;9.262;2023-06-14T06:33:04;98186.84;;;20.22;43.87
7760;BME280;3924;48.830;9.262;2023-06-14T06:35:32;98192.19;;;20.34;43.83
7760;BME280;3924;48.830;9.262;2023-06-14T06:38:00;98190.56;;;20.53;43.34
7760;BME280;3924;48.830;9.262;2023-06-14T06:40:27;98192.03;;;20.46;43.21
7760;BME280;3924;48.830;9.262;2023-06-14T06:42:54;98189.78;;;20.52;43.26
7760;BME280;3924;48.830;9.262;2023-06-14T06:45:21;98197.66;;;20.76;42.76
7760;BME280;3924;48.830;9.262;2023-06-14T06:47:50;98194.84;;;20.73;42.66
7760;BME280;3924;48.830;9.262;2023-06-14T06:50:18;98194.22;;;20.83;42.65
7760;BME280;3924;48.830;9.262;2023-06-14T06:52:46;98204.88;;;21.11;42.02
7760;BME280;3924;48.830;9.262;2023-06-14T06:55:13;98206.38;;;21.05;42.10
7760;BME280;3924;48.830;9.262;2023-06-14T06:57:40;98212.16;;;20.96;42.20
7760;BME280;3924;48.830;9.262;2023-06-14T07:00:07;98212.63;;;20.79;42.41
7760;BME280;3924;48.830;9.262;2023-06-14T07:02:36;98221.00;;;20.60;42.59
7760;BME280;3924;48.830;9.262;2023-06-14T07:05:04;98222.03;;;20.74;42.55
7760;BME280;3924;48.830;9.262;2023-06-14T07:07:31;98217.72;;;20.77;42.43
7760;BME280;3924;48.830;9.262;2023-06-14T07:09:58;98226.81;;;20.55;42.83
7760;BME280;3924;48.830;9.262;2023-06-14T07:12:25;98226.63;;;20.67;42.52
7760;BME280;3924;48.830;9.262;2023-06-14T07:14:51;98228.13;;;21.10;42.04
7760;BME280;3924;48.830;9.262;2023-06-14T07:17:19;98229.63;;;21.30;41.44
7760;BME280;3924;48.830;9.262;2023-06-14T07:19:46;98233.91;;;21.54;41.10
7760;BME280;3924;48.830;9.262;2023-06-14T07:22:12;98226.44;;;21.85;40.76
7760;BME280;3924;48.830;9.262;2023-06-14T07:24:39;98234.75;;;22.19;40.18
7760;BME280;3924;48.830;9.262;2023-06-14T07:27:07;98235.25;;;22.28;39.92
7760;BME280;3924;48.830;9.262;2023-06-14T07:29:34;98230.75;;;22.13;40.06
7760;BME280;3924;48.830;9.262;2023-06-14T07:32:00;98240.03;;;22.01;40.35
7760;BME280;3924;48.830;9.262;2023-06-14T07:34:27;98231.66;;;22.24;40.00
7760;BME280;3924;48.830;9.262;2023-06-14T07:36:54;98234.25;;;22.47;39.62
7760;BME280;3924;48.830;9.262;2023-06-14T07:39:20;98237.16;;;22.61;39.41
7760;BME280;3924;48.830;9.262;2023-06-14T07:41:47;98245.31;;;22.47;39.80
7760;BME280;3924;48.830;9.262;2023-06-14T07:44:13;98242.56;;;22.47;39.58
7760;BME280;3924;48.830;9.262;2023-06-14T07:46:40;98244.59;;;22.53;39.86
7760;BME280;3924;48.830;9.262;2023-06-14T07:49:07;98243.06;;;22.59;39.42
7760;BME280;3924;48.830;9.262;2023-06-14T07:51:33;98237.34;;;22.38;39.66
7760;BME280;3924;48.830;9.262;2023-06-14T07:54:00;98235.78;;;22.41;39.94
7760;BME280;3924;48.830;9.262;2023-06-14T07:56:28;98235.97;;;22.58;39.72
7760;BME280;3924;48.830;9.262;2023-06-14T07:58:55;98231.66;;;22.64;39.39
7760;BME280;3924;48.830;9.262;2023-06-14T08:01:23;98226.63;;;22.74;39.47
7760;BME280;3924;48.830;9.262;2023-06-14T08:03:51;98235.38;;;22.83;39.33
7760;BME280;3924;48.830;9.262;2023-06-14T08:06:18;98225.59;;;22.89;39.27
7760;BME280;3924;48.830;9.262;2023-06-14T08:08:45;98233.47;;;22.87;39.22
7760;BME280;3924;48.830;9.262;2023-06-14T08:11:11;98237.91;;;22.95;39.17
7760;BME280;3924;48.830;9.262;2023-06-14T08:13:38;98234.78;;;23.00;38.91
7760;BME280;3924;48.830;9.262;2023-06-14T08:16:06;98234.84;;;23.07;38.81
7760;BME280;3924;48.830;9.262;2023-06-14T08:18:33;98230.53;;;23.13;38.77
7760;BME280;3924;48.830;9.262;2023-06-14T08:20:59;98229.81;;;23.20;38.66
7760;BME280;3924;48.830;9.262;2023-06-14T08:23:28;98238.00;;;23.61;38.00
7760;BME280;3924;48.830;9.262;2023-06-14T08:25:54;98230.22;;;23.95;37.69
7760;BME280;3924;48.830;9.262;2023-06-14T08:28:24;98237.47;;;24.24;37.02
7760;BME280;3924;48.830;9.262;2023-06-14T08:30:50;98235.56;;;24.50;37.02
7760;BME280;3924;48.830;9.262;2023-06-14T08:33:17;98237.19;;;24.62;36.51
7760;BME280;3924;48.830;9.262;2023-06-14T08:35:44;98235.59;;;24.75;36.25
7760;BME280;3924;48.830;9.262;2023-06-14T08:38:11;98240.38;;;24.81;36.27
7760;BME280;3924;48.830;9.262;2023-06-14T08:40:39;98238.78;;;24.88;36.18
7760;BME280;3924;48.830;9.262;2023-06-14T08:43:08;98249.91;;;24.91;36.26
7760;BME280;3924;48.830;9.262;2023-06-14T08:45:35;98241.16;;;24.82;36.13
7760;BME280;3924;48.830;9.262;2023-06-14T08:48:01;98251.81;;;24.44;36.75
7760;BME280;3924;48.830;9.262;2023-06-14T08:50:29;98240.69;;;24.41;36.98
7760;BME280;3924;48.830;9.262;2023-06-14T08:53:01;98244.69;;;24.54;36.74
7760;BME280;3924;48.830;9.262;2023-06-14T08:55:30;98242.72;;;24.76;36.29
7760;BME280;3924;48.830;9.262;2023-06-14T08:58:01;98245.91;;;24.96;35.96
7760;BME280;3924;48.830;9.262;2023-06-14T09:00:29;98237.63;;;25.10;35.83
7760;BME280;3924;48.830;9.262;2023-06-14T09:02:57;98244.38;;;25.16;35.73
7760;BME280;3924;48.830;9.262;2023-06-14T09:05:25;98239.97;;;24.94;36.00
7760;BME280;3924;48.830;9.262;2023-06-14T09:07:53;98237.22;;;24.87;35.94
7760;BME280;3924;48.830;9.262;2023-06-14T09:10:24;98244.34;;;24.88;36.00
7760;BME280;3924;48.830;9.262;2023-06-14T09:12:53;98230.88;;;25.04;35.72
7760;BME280;3924;48.830;9.262;2023-06-14T09:15:19;98246.75;;;25.28;35.24
7760;BME280;3924;48.830;9.262;2023-06-14T09:17:47;98246.69;;;25.57;34.91
7760;BME280;3924;48.830;9.262;2023-06-14T09:20:14;98241.16;;;25.53;35.04
7760;BME280;3924;48.830;9.262;2023-06-14T09:22:46;98243.13;;;25.38;35.06
7760;BME280;3924;48.830;9.262;2023-06-14T09:25:13;98247.88;;;25.52;34.97
7760;BME280;3924;48.830;9.262;2023-06-14T09:28:01;98237.97;;;25.62;34.77
7760;BME280;3924;48.830;9.262;2023-06-14T09:30:28;98246.66;;;25.82;34.44
7760;BME280;3924;48.830;9.262;2023-06-14T09:32:55;98247.03;;;25.87;34.22
7760;BME280;3924;48.830;9.262;2023-06-14T09:35:22;98251.41;;;25.78;34.10
7760;BME280;3924;48.830;9.262;2023-06-14T09:37:50;98244.28;;;25.77;34.21
7760;BME280;3924;48.830;9.262;2023-06-14T09:40:20;98249.41;;;25.85;34.42
7760;BME280;3924;48.830;9.262;2023-06-14T09:42:47;98255.78;;;25.68;34.39
7760;BME280;3924;48.830;9.262;2023-06-14T09:45:15;98254.63;;;25.62;34.25
7760;BME280;3924;48.830;9.262;2023-06-14T09:47:49;98249.09;;;25.48;34.43
7760;BME280;3924;48.830;9.262;2023-06-14T09:50:32;98246.28;;;25.51;34.53
7760;BME280;3924;48.830;9.262;2023-06-14T09:53:05;98251.03;;;25.76;34.06
7760;BME280;3924;48.830;9.262;2023-06-14T09:55:35;98249.13;;;25.33;34.36
7760;BME280;3924;48.830;9.262;2023-06-14T09:58:07;98253.81;;;24.76;35.19
7760;BME280;3924;48.830;9.262;2023-06-14T10:00:36;98258.88;;;24.31;35.68
7760;BME280;3924;48.830;9.262;2023-06-14T10:03:12;98239.41;;;24.13;35.77
7760;BME280;3924;48.830;9.262;2023-06-14T10:05:43;98241.56;;;24.73;35.03
7760;BME280;3924;48.830;9.262;2023-06-14T10:08:13;98244.38;;;25.13;34.23
7760;BME280;3924;48.830;9.262;2023-06-14T10:10:42;98241.56;;;25.37;33.61
7760;BME280;3924;48.830;9.262;2023-06-14T10:13:10;98244.25;;;25.84;33.13
7760;BME280;3924;48.830;9.262;2023-06-14T10:15:42;98246.66;;;25.71;33.09
7760;BME280;3924;48.830;9.262;2023-06-14T10:18:24;98244.34;;;25.37;33.55
7760;BME280;3924;48.830;9.262;2023-06-14T10:23:41;98245.41;;;25.94;32.96
7760;BME280;3924;48.830;9.262;2023-06-14T10:26:18;98230.75;;;25.89;32.75
7760;BME280;3924;48.830;9.262;2023-06-14T10:28:56;98240.88;;;26.42;32.19
7760;BME280;3924;48.830;9.262;2023-06-14T10:31:40;98226.97;;;26.94;31.70
7760;BME280;3924;48.830;9.262;2023-06-14T10:34:08;98228.31;;;27.27;31.00
7760;BME280;3924;48.830;9.262;2023-06-14T10:36:36;98226.38;;;27.21;31.33
7760;BME280;3924;48.830;9.262;2023-06-14T10:39:14;98224.44;;;27.14;31.11
7760;BME280;3924;48.830;9.262;2023-06-14T10:41:41;98238.00;;;27.12;31.16
7760;BME280;3924;48.830;9.262;2023-06-14T10:46:46;98232.03;;;27.10;31.27
7760;BME280;3924;48.830;9.262;2023-06-14T10:49:18;98229.56;;;26.71;31.70
7760;BME280;3924;48.830;9.262;2023-06-14T10:51:50;98233.53;;;26.70;31.42
7760;BME280;3924;48.830;9.262;2023-06-14T10:54:21;98238.22;;;26.80;31.34
7760;BME280;3924;48.830;9.262;2023-06-14T10:56:52;98238.56;;;26.23;32.08
7760;BME280;3924;48.830;9.262;2023-06-14T10:59:20;98245.06;;;25.77;32.70
7760;BME280;3924;48.830;9.262;2023-06-14T11:01:57;98240.38;;;24.89;33.73
7760;BME280;3924;48.830;9.262;2023-06-14T11:04:52;98241.16;;;24.96;33.70
7760;BME280;3924;48.830;9.262;2023-06-14T11:10:29;98225.19;;;25.89;31.82
7760;BME280;3924;48.830;9.262;2023-06-14T11:13:01;98243.25;;;26.33;31.64
7760;BME280;3924;48.830;9.262;2023-06-14T11:15:29;98230.94;;;26.34;31.48
7760;BME280;3924;48.830;9.262;2023-06-14T11:17:55;98224.88;;;26.54;31.33
7760;BME280;3924;48.830;9.262;2023-06-14T11:20:29;98223.84;;;26.89;30.79
7760;BME280;3924;48.830;9.262;2023-06-14T11:22:56;98213.38;;;27.04;30.52
7760;BME280;3924;48.830;9.262;2023-06-14T11:25:22;98222.19;;;26.98;30.63
7760;BME280;3924;48.830;9.262;2023-06-14T11:27:49;98217.38;;;27.06;30.45
7760;BME280;3924;48.830;9.262;2023-06-14T11:30:17;98232.44;;;27.09;30.66
7760;BME280;3924;48.830;9.262;2023-06-14T11:32:48;98225.53;;;26.76;30.80
7760;BME280;3924;48.830;9.262;2023-06-14T11:35:15;98225.03;;;26.25;31.29
7760;BME280;3924;48.830;9.262;2023-06-14T11:37:42;98235.56;;;25.75;31.82
7760;BME280;3924;48.830;9.262;2023-06-14T11:40:11;98226.03;;;25.72;31.88
7760;BME280;3924;48.830;9.262;2023-06-14T11:42:40;98225.41;;;26.27;31.08
7760;BME280;3924;48.830;9.262;2023-06-14T11:45:11;98216.78;;;26.77;30.32
7760;BME280;3924;48.830;9.262;2023-06-14T11:47:39;98220.53;;;27.08;30.17
7760;BME280;3924;48.830;9.262;2023-06-14T11:50:07;98213.81;;;27.47;29.50
7760;BME280;3924;48.830;9.262;2023-06-14T11:52:37;98220.91;;;27.51;29.40
7760;BME280;3924;48.830;9.262;2023-06-14T11:55:05;98227.31;;;27.45;29.63
7760;BME280;3924;48.830;9.262;2023-06-14T11:57:35;98214.03;;;27.22;29.53
7760;BME280;3924;48.830;9.262;2023-06-14T12:00:03;98218.88;;;27.18;29.69
7760;BME280;3924;48.830;9.262;2023-06-14T12:02:33;98211.00;;;27.02;29.89
7760;BME280;3924;48.830;9.262;2023-06-14T12:05:05;98218.19;;;26.99;29.94
7760;BME280;3924;48.830;9.262;2023-06-14T12:07:37;98216.72;;;26.84;29.96
7760;BME280;3924;48.830;9.262;2023-06-14T12:10:07;98212.53;;;27.10;29.55
7760;BME280;3924;48.830;9.262;2023-06-14T12:12:36;98204.34;;;27.37;29.53
7760;BME280;3924;48.830;9.262;2023-06-14T12:15:08;98210.28;;;27.80;28.89
7760;BME280;3924;48.830;9.262;2023-06-14T12:17:36;98212.09;;;27.94;28.85
7760;BME280;3924;48.830;9.262;2023-06-14T12:20:06;98214.81;;;27.64;29.15
7760;BME280;3924;48.830;9.262;2023-06-14T12:22:53;98214.63;;;26.95;29.86
7760;BME280;3924;48.830;9.262;2023-06-14T12:25:28;98221.91;;;26.16;30.67
7760;BME280;3924;48.830;9.262;2023-06-14T12:27:55;98219.72;;;25.50;31.36
7760;BME280;3924;48.830;9.262;2023-06-14T12:30:22;98210.25;;;25.41;31.32
7760;BME280;3924;48.830;9.262;2023-06-14T12:32:48;98212.41;;;26.10;30.69
7760;BME280;3924;48.830;9.262;2023-06-14T12:35:15;98196.66;;;26.59;30.04
7760;BME280;3924;48.830;9.262;2023-06-14T12:37:43;98215.53;;;26.85;29.70
7760;BME280;3924;48.830;9.262;2023-06-14T12:40:10;98203.66;;;27.26;29.19
7760;BME280;3924;48.830;9.262;2023-06-14T12:42:38;98203.09;;;27.45;29.13
7760;BME280;3924;48.830;9.262;2023-06-14T12:45:04;98205.47;;;27.43;29.18
7760;BME280;3924;48.830;9.262;2023-06-14T12:47:31;98205.72;;;26.70;29.82
7760;BME280;3924;48.830;9.262;2023-06-14T12:49:58;98210.44;;;26.77;29.88
7760;BME280;3924;48.830;9.262;2023-06-14T12:52:24;98201.50;;;26.99;29.62
7760;BME280;3924;48.830;9.262;2023-06-14T12:54:51;98201.81;;;27.12;29.33
7760;BME280;3924;48.830;9.262;2023-06-14T12:57:18;98202.28;;;27.00;29.49
7760;BME280;3924;48.830;9.262;2023-06-14T12:59:44;98189.34;;;27.24;29.25
7760;BME280;3924;48.830;9.262;2023-06-14T13:02:15;98197.03;;;27.50;29.22
7760;BME280;3924;48.830;9.262;2023-06-14T13:04:42;98199.16;;;27.77;28.86
7760;BME280;3924;48.830;9.262;2023-06-14T13:07:09;98200.94;;;28.25;28.56
7760;BME280;3924;48.830;9.262;2023-06-14T13:09:37;98209.59;;;28.34;28.19
7760;BME280;3924;48.830;9.262;2023-06-14T13:12:04;98212.09;;;28.25;28.56
7760;BME280;3924;48.830;9.262;2023-06-14T13:14:34;98201.75;;;28.52;28.16
7760;BME280;3924;48.830;9.262;2023-06-14T13:17:01;98211.25;;;28.82;27.85
7760;BME280;3924;48.830;9.262;2023-06-14T13:19:27;98201.28;;;29.08;27.65
7760;BME280;3924;48.830;9.262;2023-06-14T13:21:54;98196.09;;;29.30;27.19
7760;BME280;3924;48.830;9.262;2023-06-14T13:24:20;98208.75;;;29.38;27.43
7760;BME280;3924;48.830;9.262;2023-06-14T13:26:47;98203.44;;;29.24;27.39
7760;BME280;3924;48.830;9.262;2023-06-14T13:29:14;98205.72;;;29.05;27.62
7760;BME280;3924;48.830;9.262;2023-06-14T13:31:40;98206.41;;;28.86;27.75
7760;BME280;3924;48.830;9.262;2023-06-14T13:34:07;98199.91;;;28.96;27.88
7760;BME280;3924;48.830;9.262;2023-06-14T13:36:33;98209.56;;;28.88;27.89